sensor_id;sensor_type;location;lat;lon;timestamp;pressure;altitude;pressure_sealevel;temperature;humidity
52975;BME280;38839;45.186;5.720;2024-01-15T00:00:37;98565.94;;;3.03;100.00
52975;BME280;38839;45.186;5.720;2024-01-15T00:03:02;98576.31;;;3.06;100.00
52975;BME280;38839;45.186;5.720;2024-01-15T00:05:28;98566.94;;;3.10;100.00
52975;BME280;38839;45.186;5.720;2024-01-15T00:07:53;98558.38;;;3.12;100.00
52975;BME280;38839;45.186;5.720;2024-01-15T00:10:18;98566.13;;;3.14;100.00
52975;BME280;38839;45.186;5.720;2024-01-15T00:12:43;98566.16;;;3.15;100.00
52975;BME280;38839;45.186;5.720;2024-01-15T00:15:09;98565.28;;;3.15;100.00
52975;BME280;38839;45.186;5.720;2024-01-15T00:17:34;98561.75;;;3.08;100.00
52975;BME280;38839;45.186;5.720;2024-01-15T00:19:59;98555.81;;;3.12;100.00
52975;BME280;38839;45.186;5.720;2024-01-15T00:22:25;98554.00;;;3.08;100.00
52975;BME280;38839;45.186;5.720;2024-01-15T00:24:51;98560.78;;;3.03;100.00
52975;BME280;38839;45.186;5.720;2024-01-15T00:27:16;98550.53;;;3.06;100.00
52975;BME280;38839;45.186;5.720;2024-01-15T00:29:41;98550.44;;;3.00;100.00
52975;BME280;38839;45.186;5.720;2024-01-15T00:32:06;98548.84;;;3.08;100.00
52975;BME280;38839;45.186;5.720;2024-01-15T00:34:32;98549.78;;;3.12;100.00
52975;BME280;38839;45.186;5.720;2024-01-15T00:36:57;98555.91;;;3.18;100.00
52975;BME280;38839;45.186;5.720;2024-01-15T00:39:22;98550.78;;;3.21;100.00
52975;BME280;38839;45.186;5.720;2024-01-15T00:41:47;98559.47;;;3.27;100.00
52975;BME280;38839;45.186;5.720;2024-01-15T00:44:13;98556.94;;;3.28;100.00
52975;BME280;38839;45.186;5.720;2024-01-15T00:46:42;98540.59;;;3.29;100.00
52975;BME280;38839;45.186;5.720;2024-01-15T00:49:07;98526.06;;;3.33;100.00
52975;BME280;38839;45.186;5.720;2024-01-15T00:51:32;98526.06;;;3.33;100.00
52975;BME280;38839;45.186;5.720;2024-01-15T00:53:58;98530.31;;;3.31;100.00
52975;BME280;38839;45.186;5.720;2024-01-15T00:56:23;98521.72;;;3.32;100.00
52975;BME280;38839;45.186;5.720;2024-01-15T00:58:48;98519.22;;;3.35;100.00
52975;BME280;38839;45.186;5.720;2024-01-15T01:01:13;98525.19;;;3.34;100.00
52975;BME280;38839;45.186;5.720;2024-01-15T01:03:39;98528.66;;;3.36;100.00
52975;BME280;38839;45.186;5.720;2024-01-15T01:06:04;98532.09;;;3.35;100.00
52975;BME280;38839;45.186;5.720;2024-01-15T01:08:29;98528.69;;;3.37;100.00
52975;BME280;38839;45.186;5.720;2024-01-15T01:10:55;98525.28;;;3.40;100.00
52975;BME280;38839;45.186;5.720;2024-01-15T01:13:20;98528.75;;;3.42;100.00
52975;BME280;38839;45.186;5.720;2024-01-15T01:15:46;98532.19;;;3.41;100.00
52975;BME280;38839;45.186;5.720;2024-01-15T01:18:11;98529.56;;;3.36;100.00
52975;BME280;38839;45.186;5.720;2024-01-15T01:20:36;98536.25;;;3.25;100.00
52975;BME280;38839;45.186;5.720;2024-01-15T01:23:01;98531.13;;;3.27;100.00
52975;BME280;38839;45.186;5.720;2024-01-15T01:25:28;98535.31;;;3.21;100.00
52975;BME280;38839;45.186;5.720;2024-01-15T01:27:53;98531.06;;;3.22;100.00
52975;BME280;38839;45.186;5.720;2024-01-15T01:30:18;98533.63;;;3.23;100.00
52975;BME280;38839;45.186;5.720;2024-01-15T01:32:44;98527.69;;;3.26;100.00
52975;BME280;38839;45.186;5.720;2024-01-15T01:35:09;98536.31;;;3.30;100.00
52975;BME280;38839;45.186;5.720;2024-01-15T01:37:34;98533.72;;;3.30;100.00
52975;BME280;38839;45.186;5.720;2024-01-15T01:39:59;98532.81;;;3.25;100.00
52975;BME280;38839;45.186;5.720;2024-01-15T01:42:25;98541.19;;;3.13;100.00
52975;BME280;38839;45.186;5.720;2024-01-15T01:44:50;98540.16;;;3.03;100.00
52975;BME280;38839;45.186;5.720;2024-01-15T01:47:18;98542.41;;;2.83;100.00
52975;BME280;38839;45.186;5.720;2024-01-15T01:49:43;98542.13;;;2.68;100.00
52975;BME280;38839;45.186;5.720;2024-01-15T01:52:09;98544.66;;;2.66;100.00
52975;BME280;38839;45.186;5.720;2024-01-15T01:54:35;98550.59;;;2.62;100.00
52975;BME280;38839;45.186;5.720;2024-01-15T01:57:00;98549.84;;;2.68;100.00
52975;BME280;38839;45.186;5.720;2024-01-15T01:59:27;98549.09;;;2.73;100.00
52975;BME280;38839;45.186;5.720;2024-01-15T02:01:56;98545.72;;;2.76;100.00
52975;BME280;38839;45.186;5.720;2024-01-15T02:04:23;98551.91;;;2.86;100.00
52975;BME280;38839;45.186;5.720;2024-01-15T02:06:49;98553.72;;;2.93;100.00
52975;BME280;38839;45.186;5.720;2024-01-15T02:09:14;98549.50;;;2.96;100.00
52975;BME280;38839;45.186;5.720;2024-01-15T02:11:40;98558.19;;;3.03;100.00
52975;BME280;38839;45.186;5.720;2024-01-15T02:14:06;98564.66;;;2.79;100.00
52975;BME280;38839;45.186;5.720;2024-01-15T02:16:31;98567.06;;;2.70;100.00
52975;BME280;38839;45.186;5.720;2024-01-15T02:18:56;98569.09;;;2.41;100.00
52975;BME280;38839;45.186;5.720;2024-01-15T02:21:22;98571.38;;;2.27;100.00
52975;BME280;38839;45.186;5.720;2024-01-15T02:23:47;98564.28;;;2.17;100.00
52975;BME280;38839;45.186;5.720;2024-01-15T02:26:12;98560.78;;;2.12;100.00
52975;BME280;38839;45.186;5.720;2024-01-15T02:28:38;98564.16;;;2.11;100.00
52975;BME280;38839;45.186;5.720;2024-01-15T02:31:04;98562.38;;;2.07;100.00
52975;BME280;38839;45.186;5.720;2024-01-15T02:33:29;98566.59;;;2.05;100.00
52975;BME280;38839;45.186;5.720;2024-01-15T02:35:54;98566.72;;;2.09;100.00
52975;BME280;38839;45.186;5.720;2024-01-15T02:38:19;98567.38;;;2.00;100.00
52975;BME280;38839;45.186;5.720;2024-01-15T02:40:45;98562.22;;;2.00;100.00
52975;BME280;38839;45.186;5.720;2024-01-15T02:43:10;98557.16;;;2.04;100.00
52975;BME280;38839;45.186;5.720;2024-01-15T02:45:36;98555.53;;;2.09;100.00
52975;BME280;38839;45.186;5.720;2024-01-15T02:48:01;98553.88;;;2.11;100.00
52975;BME280;38839;45.186;5.720;2024-01-15T02:50:26;98557.34;;;2.13;100.00
52975;BME280;38839;45.186;5.720;2024-01-15T02:52:52;98557.34;;;2.13;100.00
52975;BME280;38839;45.186;5.720;2024-01-15T02:55:17;98559.97;;;2.14;100.00
52975;BME280;38839;45.186;5.720;2024-01-15T02:57:43;98554.97;;;2.22;100.00
52975;BME280;38839;45.186;5.720;2024-01-15T03:00:08;98540.56;;;2.30;100.00
52975;BME280;38839;45.186;5.720;2024-01-15T03:02:37;98531.97;;;2.31;100.00
52975;BME280;38839;45.186;5.720;2024-01-15T03:05:05;98529.53;;;2.37;100.00
52975;BME280;38839;45.186;5.720;2024-01-15T03:07:30;98530.66;;;2.52;100.00
52975;BME280;38839;45.186;5.720;2024-01-15T03:09:55;98529.94;;;2.59;100.00
52975;BME280;38839;45.186;5.720;2024-01-15T03:12:20;98539.50;;;2.66;100.00
52975;BME280;38839;45.186;5.720;2024-01-15T03:14:46;98537.94;;;2.74;100.00
52975;BME280;38839;45.186;5.720;2024-01-15T03:17:11;98528.66;;;2.81;100.00
52975;BME280;38839;45.186;5.720;2024-01-15T03:19:37;98536.44;;;2.86;100.00
52975;BME280;38839;45.186;5.720;2024-01-15T03:22:02;98541.59;;;2.86;100.00
52975;BME280;38839;45.186;5.720;2024-01-15T03:24:28;98539.94;;;2.89;100.00
52975;BME280;38839;45.186;5.720;2024-01-15T03:26:53;98541.72;;;2.92;100.00
52975;BME280;38839;45.186;5.720;2024-01-15T03:29:19;98536.56;;;2.92;100.00
52975;BME280;38839;45.186;5.720;2024-01-15T03:31:44;98538.22;;;2.90;100.00
52975;BME280;38839;45.186;5.720;2024-01-15T03:34:09;98532.78;;;2.74;100.00
52975;BME280;38839;45.186;5.720;2024-01-15T03:36:34;98527.59;;;2.71;100.00
52975;BME280;38839;45.186;5.720;2024-01-15T03:39:00;98527.53;;;2.68;100.00
52975;BME280;38839;45.186;5.720;2024-01-15T03:41:25;98531.72;;;2.61;100.00
52975;BME280;38839;45.186;5.720;2024-01-15T03:43:50;98527.53;;;2.68;100.00
52975;BME280;38839;45.186;5.720;2024-01-15T03:46:15;98530.22;;;2.74;100.00
52975;BME280;38839;45.186;5.720;2024-01-15T03:48:41;98527.59;;;2.71;100.00
52975;BME280;38839;45.186;5.720;2024-01-15T03:51:06;98524.03;;;2.63;100.00
52975;BME280;38839;45.186;5.720;2024-01-15T03:53:31;98520.47;;;2.58;100.00
52975;BME280;38839;45.186;5.720;2024-01-15T03:55:56;98526.59;;;2.63;100.00
52975;BME280;38839;45.186;5.720;2024-01-15T03:58:22;98524.63;;;2.48;100.00
52975;BME280;38839;45.186;5.720;2024-01-15T04:00:47;98525.63;;;2.58;100.00
52975;BME280;38839;45.186;5.720;2024-01-15T04:03:12;98530.72;;;2.55;100.00
52975;BME280;38839;45.186;5.720;2024-01-15T04:05:38;98511.97;;;2.62;100.00
52975;BME280;38839;45.186;5.720;2024-01-15T04:08:03;98511.97;;;2.62;100.00
52975;BME280;38839;45.186;5.720;2024-01-15T04:10:28;98520.50;;;2.59;100.00
52975;BME280;38839;45.186;5.720;2024-01-15T04:12:54;98511.94;;;2.59;100.00
52975;BME280;38839;45.186;5.720;2024-01-15T04:15:19;98518.00;;;2.64;100.00
52975;BME280;38839;45.186;5.720;2024-01-15T04:17:44;98522.34;;;2.65;100.00
52975;BME280;38839;45.186;5.720;2024-01-15T04:20:10;98522.28;;;2.62;100.00
52975;BME280;38839;45.186;5.720;2024-01-15T04:22:36;98512.06;;;2.68;100.00
52975;BME280;38839;45.186;5.720;2024-01-15T04:25:04;98502.66;;;2.69;100.00
52975;BME280;38839;45.186;5.720;2024-01-15T04:27:30;98500.09;;;2.70;100.00
52975;BME280;38839;45.186;5.720;2024-01-15T04:29:55;98504.38;;;2.70;100.00
52975;BME280;38839;45.186;5.720;2024-01-15T04:32:20;98509.69;;;2.77;100.00
52975;BME280;38839;45.186;5.720;2024-01-15T04:34:46;98516.41;;;2.69;100.00
52975;BME280;38839;45.186;5.720;2024-01-15T04:37:11;98513.13;;;2.78;100.00
52975;BME280;38839;45.186;5.720;2024-01-15T04:39:36;98521.78;;;2.81;100.00
52975;BME280;38839;45.186;5.720;2024-01-15T04:42:04;98520.00;;;2.77;100.00
52975;BME280;38839;45.186;5.720;2024-01-15T04:44:30;98508.09;;;2.86;100.00
52975;BME280;38839;45.186;5.720;2024-01-15T04:46:55;98495.25;;;2.89;100.00
52975;BME280;38839;45.186;5.720;2024-01-15T04:49:20;98494.38;;;2.87;100.00
52975;BME280;38839;45.186;5.720;2024-01-15T04:51:46;98497.00;;;2.90;100.00
52975;BME280;38839;45.186;5.720;2024-01-15T04:54:11;98499.72;;;2.99;100.00
52975;BME280;38839;45.186;5.720;2024-01-15T04:56:36;98497.97;;;2.96;100.00
52975;BME280;38839;45.186;5.720;2024-01-15T04:59:01;98504.91;;;3.00;100.00
52975;BME280;38839;45.186;5.720;2024-01-15T05:01:31;98487.66;;;2.96;100.00
52975;BME280;38839;45.186;5.720;2024-01-15T05:03:57;98490.19;;;2.92;100.00
52975;BME280;38839;45.186;5.720;2024-01-15T05:06:22;98495.25;;;2.89;100.00
52975;BME280;38839;45.186;5.720;2024-01-15T05:08:47;98497.03;;;2.93;100.00
52975;BME280;38839;45.186;5.720;2024-01-15T05:11:13;98495.38;;;2.95;100.00
52975;BME280;38839;45.186;5.720;2024-01-15T05:13:38;98497.00;;;2.90;100.00
52975;BME280;38839;45.186;5.720;2024-01-15T05:16:03;98495.22;;;2.86;100.00
52975;BME280;38839;45.186;5.720;2024-01-15T05:18:29;98489.22;;;2.85;100.00
52975;BME280;38839;45.186;5.720;2024-01-15T05:20:54;98484.09;;;2.88;100.00
52975;BME280;38839;45.186;5.720;2024-01-15T05:23:19;98483.31;;;2.92;100.00
52975;BME280;38839;45.186;5.720;2024-01-15T05:25:45;98495.38;;;2.95;100.00
52975;BME280;38839;45.186;5.720;2024-01-15T05:28:10;98487.63;;;2.95;100.00
52975;BME280;38839;45.186;5.720;2024-01-15T05:30:35;98489.31;;;2.91;100.00
52975;BME280;38839;45.186;5.720;2024-01-15T05:33:01;98493.56;;;2.91;100.00
52975;BME280;38839;45.186;5.720;2024-01-15T05:35:26;98494.94;;;2.70;100.00
52975;BME280;38839;45.186;5.720;2024-01-15T05:37:51;98492.47;;;2.76;100.00
52975;BME280;38839;45.186;5.720;2024-01-15T05:40:16;98503.78;;;2.85;100.00
52975;BME280;38839;45.186;5.720;2024-01-15T05:42:42;98491.78;;;2.87;100.00
52975;BME280;38839;45.186;5.720;2024-01-15T05:45:07;98484.97;;;2.89;100.00
52975;BME280;38839;45.186;5.720;2024-01-15T05:47:32;98483.28;;;2.91;100.00
52975;BME280;38839;45.186;5.720;2024-01-15T05:49:58;98485.03;;;2.92;100.00
52975;BME280;38839;45.186;5.720;2024-01-15T05:52:23;98472.19;;;2.95;100.00
52975;BME280;38839;45.186;5.720;2024-01-15T05:54:52;98474.75;;;2.95;100.00
52975;BME280;38839;45.186;5.720;2024-01-15T05:57:17;98478.22;;;2.97;100.00
52975;BME280;38839;45.186;5.720;2024-01-15T05:59:43;98466.13;;;2.93;100.00
52975;BME280;38839;45.186;5.720;2024-01-15T06:02:09;98462.75;;;2.97;100.00
52975;BME280;38839;45.186;5.720;2024-01-15T06:04:34;98459.38;;;3.01;100.00
52975;BME280;38839;45.186;5.720;2024-01-15T06:06:59;98464.59;;;3.04;100.00
52975;BME280;38839;45.186;5.720;2024-01-15T06:09:25;98464.50;;;2.98;100.00
52975;BME280;38839;45.186;5.720;2024-01-15T06:11:50;98467.13;;;2.99;100.00
52975;BME280;38839;45.186;5.720;2024-01-15T06:14:15;98478.19;;;2.94;100.00
52975;BME280;38839;45.186;5.720;2024-01-15T06:16:40;98468.81;;;2.97;100.00
52975;BME280;38839;45.186;5.720;2024-01-15T06:19:05;98470.50;;;2.97;100.00
52975;BME280;38839;45.186;5.720;2024-01-15T06:21:31;98478.19;;;2.94;100.00
52975;BME280;38839;45.186;5.720;2024-01-15T06:23:56;98471.44;;;3.02;100.00
52975;BME280;38839;45.186;5.720;2024-01-15T06:26:22;98462.00;;;3.02;100.00
52975;BME280;38839;45.186;5.720;2024-01-15T06:28:47;98469.00;;;3.10;100.00
52975;BME280;38839;45.186;5.720;2024-01-15T06:31:12;98468.22;;;3.17;100.00
52975;BME280;38839;45.186;5.720;2024-01-15T06:33:38;98468.16;;;3.12;100.00
52975;BME280;38839;45.186;5.720;2024-01-15T06:36:03;98476.59;;;3.02;100.00
52975;BME280;38839;45.186;5.720;2024-01-15T06:38:28;98475.91;;;3.12;100.00
52975;BME280;38839;45.186;5.720;2024-01-15T06:40:54;98472.47;;;3.12;100.00
52975;BME280;38839;45.186;5.720;2024-01-15T06:43:19;98473.41;;;3.18;100.00
52975;BME280;38839;45.186;5.720;2024-01-15T06:45:44;98474.41;;;3.27;100.00
52975;BME280;38839;45.186;5.720;2024-01-15T06:48:10;98476.28;;;3.37;100.00
52975;BME280;38839;45.186;5.720;2024-01-15T06:50:37;98474.47;;;3.31;100.00
52975;BME280;38839;45.186;5.720;2024-01-15T06:53:02;98475.31;;;3.32;100.00
52975;BME280;38839;45.186;5.720;2024-01-15T06:55:28;98482.34;;;3.42;100.00
52975;BME280;38839;45.186;5.720;2024-01-15T06:57:53;98478.03;;;3.39;100.00
52975;BME280;38839;45.186;5.720;2024-01-15T07:00:18;98475.84;;;3.08;100.00
52975;BME280;38839;45.186;5.720;2024-01-15T07:02:44;98476.59;;;3.02;100.00
52975;BME280;38839;45.186;5.720;2024-01-15T07:05:10;98478.41;;;3.09;100.00
52975;BME280;38839;45.186;5.720;2024-01-15T07:07:36;98477.69;;;3.16;100.00
52975;BME280;38839;45.186;5.720;2024-01-15T07:10:01;98480.34;;;3.22;100.00
52975;BME280;38839;45.186;5.720;2024-01-15T07:12:27;98475.13;;;3.19;100.00
52975;BME280;38839;45.186;5.720;2024-01-15T07:14:52;98475.22;;;3.26;100.00
52975;BME280;38839;45.186;5.720;2024-01-15T07:17:17;98479.44;;;3.19;100.00
52975;BME280;38839;45.186;5.720;2024-01-15T07:19:42;98480.16;;;3.10;100.00
52975;BME280;38839;45.186;5.720;2024-01-15T07:22:08;98485.41;;;3.16;100.00
52975;BME280;38839;45.186;5.720;2024-01-15T07:24:33;98480.06;;;3.04;100.00
52975;BME280;38839;45.186;5.720;2024-01-15T07:27:01;98482.66;;;3.04;100.00
52975;BME280;38839;45.186;5.720;2024-01-15T07:29:27;98485.16;;;2.99;100.00
52975;BME280;38839;45.186;5.720;2024-01-15T07:31:52;98485.34;;;3.13;100.00
52975;BME280;38839;45.186;5.720;2024-01-15T07:34:18;98476.81;;;3.17;100.00
52975;BME280;38839;45.186;5.720;2024-01-15T07:36:44;98482.22;;;3.33;100.00
52975;BME280;38839;45.186;5.720;2024-01-15T07:39:09;98489.97;;;3.33;100.00
52975;BME280;38839;45.186;5.720;2024-01-15T07:41:34;98490.00;;;3.34;100.00
52975;BME280;38839;45.186;5.720;2024-01-15T07:44:00;98484.97;;;3.43;100.00
52975;BME280;38839;45.186;5.720;2024-01-15T07:46:25;98497.13;;;3.51;100.00
52975;BME280;38839;45.186;5.720;2024-01-15T07:48:51;98487.66;;;3.51;100.00
52975;BME280;38839;45.186;5.720;2024-01-15T07:51:21;98497.19;;;3.57;100.00
52975;BME280;38839;45.186;5.720;2024-01-15T07:53:46;98501.47;;;3.56;100.00
52975;BME280;38839;45.186;5.720;2024-01-15T07:56:14;98491.22;;;3.59;100.00
52975;BME280;38839;45.186;5.720;2024-01-15T07:58:39;98504.13;;;3.62;100.00
52975;BME280;38839;45.186;5.720;2024-01-15T08:01:05;98508.31;;;3.54;100.00
52975;BME280;38839;45.186;5.720;2024-01-15T08:03:31;98506.50;;;3.47;100.00
52975;BME280;38839;45.186;5.720;2024-01-15T08:05:56;98499.59;;;3.46;100.00
52975;BME280;38839;45.186;5.720;2024-01-15T08:08:24;98499.56;;;3.43;100.00
52975;BME280;38839;45.186;5.720;2024-01-15T08:10:50;98506.44;;;3.44;100.00
52975;BME280;38839;45.186;5.720;2024-01-15T08:13:15;98507.72;;;3.14;100.00
52975;BME280;38839;45.186;5.720;2024-01-15T08:15:40;98513.41;;;2.95;100.00
52975;BME280;38839;45.186;5.720;2024-01-15T08:18:06;98511.72;;;2.97;100.00
52975;BME280;38839;45.186;5.720;2024-01-15T08:20:31;98518.47;;;2.90;100.00
52975;BME280;38839;45.186;5.720;2024-01-15T08:22:57;98514.16;;;2.88;100.00
52975;BME280;38839;45.186;5.720;2024-01-15T08:25:22;98519.41;;;2.94;100.00
52975;BME280;38839;45.186;5.720;2024-01-15T08:27:47;98519.88;;;2.71;100.00
52975;BME280;38839;45.186;5.720;2024-01-15T08:30:12;98522.81;;;2.91;100.00
52975;BME280;38839;45.186;5.720;2024-01-15T08:32:38;98520.41;;;3.02;100.00
52975;BME280;38839;45.186;5.720;2024-01-15T08:35:07;98520.44;;;3.05;100.00
52975;BME280;38839;45.186;5.720;2024-01-15T08:37:32;98519.75;;;3.15;100.00
52975;BME280;38839;45.186;5.720;2024-01-15T08:39:57;98527.47;;;3.14;100.00
52975;BME280;38839;45.186;5.720;2024-01-15T08:42:22;98516.44;;;3.22;100.00
52975;BME280;38839;45.186;5.720;2024-01-15T08:44:48;98519.06;;;3.26;100.00
52975;BME280;38839;45.186;5.720;2024-01-15T08:47:13;98528.34;;;3.14;100.00
52975;BME280;38839;45.186;5.720;2024-01-15T08:49:38;98531.75;;;3.13;100.00
52975;BME280;38839;45.186;5.720;2024-01-15T08:52:05;98525.06;;;3.25;100.00
52975;BME280;38839;45.186;5.720;2024-01-15T08:54:30;98519.00;;;3.21;100.00
52975;BME280;38839;45.186;5.720;2024-01-15T08:56:55;98525.00;;;3.21;100.00
52975;BME280;38839;45.186;5.720;2024-01-15T08:59:21;98521.59;;;3.22;100.00
52975;BME280;38839;45.186;5.720;2024-01-15T09:01:50;98514.84;;;3.31;100.00
52975;BME280;38839;45.186;5.720;2024-01-15T09:04:15;98513.19;;;3.36;100.00
52975;BME280;38839;45.186;5.720;2024-01-15T09:06:42;98507.31;;;3.43;100.00
52975;BME280;38839;45.186;5.720;2024-01-15T09:09:07;98505.66;;;3.48;100.00
52975;BME280;38839;45.186;5.720;2024-01-15T09:11:32;98512.66;;;3.58;100.00
52975;BME280;38839;45.186;5.720;2024-01-15T09:13:58;98510.09;;;3.58;100.00
52975;BME280;38839;45.186;5.720;2024-01-15T09:16:24;98503.13;;;3.51;100.00
52975;BME280;38839;45.186;5.720;2024-01-15T09:18:49;98499.59;;;3.46;100.00
52975;BME280;38839;45.186;5.720;2024-01-15T09:21:14;98502.09;;;3.38;100.00
52975;BME280;38839;45.186;5.720;2024-01-15T09:23:39;98494.34;;;3.40;100.00
52975;BME280;38839;45.186;5.720;2024-01-15T09:26:06;98490.19;;;3.50;100.00
52975;BME280;38839;45.186;5.720;2024-01-15T09:28:32;98485.19;;;3.59;100.00
52975;BME280;38839;45.186;5.720;2024-01-15T09:30:58;98485.16;;;3.57;100.00
52975;BME280;38839;45.186;5.720;2024-01-15T09:33:23;98492.97;;;3.62;100.00
52975;BME280;38839;45.186;5.720;2024-01-15T09:35:48;98486.22;;;3.72;100.00
52975;BME280;38839;45.186;5.720;2024-01-15T09:38:13;98490.53;;;3.74;100.00
52975;BME280;38839;45.186;5.720;2024-01-15T09:40:39;98491.56;;;3.87;100.00
52975;BME280;38839;45.186;5.720;2024-01-15T09:43:08;98490.75;;;3.90;100.00
52975;BME280;38839;45.186;5.720;2024-01-15T09:45:33;98488.19;;;3.91;100.00
52975;BME280;38839;45.186;5.720;2024-01-15T09:47:58;98480.59;;;4.05;100.00
52975;BME280;38839;45.186;5.720;2024-01-15T09:50:24;98469.59;;;4.20;100.00
52975;BME280;38839;45.186;5.720;2024-01-15T09:52:49;98474.88;;;4.32;100.00
52975;BME280;38839;45.186;5.720;2024-01-15T09:55:15;98473.31;;;4.43;100.00
52975;BME280;38839;45.186;5.720;2024-01-15T09:57:41;98463.75;;;4.38;100.00
52975;BME280;38839;45.186;5.720;2024-01-15T10:00:07;98469.72;;;4.32;100.00
52975;BME280;38839;45.186;5.720;2024-01-15T10:02:32;98468.00;;;4.31;100.00
52975;BME280;38839;45.186;5.720;2024-01-15T10:04:58;98473.09;;;4.25;100.00
52975;BME280;38839;45.186;5.720;2024-01-15T10:07:23;98463.63;;;4.22;100.00
52975;BME280;38839;45.186;5.720;2024-01-15T10:09:50;98477.41;;;4.26;100.00
52975;BME280;38839;45.186;5.720;2024-01-15T10:12:15;98473.19;;;4.34;100.00
52975;BME280;38839;45.186;5.720;2024-01-15T10:14:41;98464.63;;;4.38;100.00
52975;BME280;38839;45.186;5.720;2024-01-15T10:17:13;98465.69;;;4.57;100.00
52975;BME280;38839;45.186;5.720;2024-01-15T10:19:42;98464.88;;;4.63;100.00
52975;BME280;38839;45.186;5.720;2024-01-15T10:22:08;98476.84;;;4.55;100.00
52975;BME280;38839;45.186;5.720;2024-01-15T10:24:35;98478.16;;;4.16;100.00
52975;BME280;38839;45.186;5.720;2024-01-15T10:27:07;98474.47;;;3.94;100.00
52975;BME280;38839;45.186;5.720;2024-01-15T10:29:33;98468.47;;;3.96;100.00
52975;BME280;38839;45.186;5.720;2024-01-15T10:31:58;98468.19;;;3.75;100.00
52975;BME280;38839;45.186;5.720;2024-01-15T10:34:24;98473.03;;;3.52;100.00
52975;BME280;38839;45.186;5.720;2024-01-15T10:36:50;98465.38;;;3.55;100.00
52975;BME280;38839;45.186;5.720;2024-01-15T10:39:20;98460.34;;;3.66;100.00
52975;BME280;38839;45.186;5.720;2024-01-15T10:41:45;98463.16;;;3.84;100.00
52975;BME280;38839;45.186;5.720;2024-01-15T10:44:12;98449.31;;;3.77;100.00
52975;BME280;38839;45.186;5.720;2024-01-15T10:46:38;98440.63;;;3.69;100.00
52975;BME280;38839;45.186;5.720;2024-01-15T10:49:04;98428.81;;;3.90;100.00
52975;BME280;38839;45.186;5.720;2024-01-15T10:51:29;98424.63;;;4.01;100.00
52975;BME280;38839;45.186;5.720;2024-01-15T10:53:54;98426.25;;;3.91;100.00
52975;BME280;38839;45.186;5.720;2024-01-15T10:56:20;98437.53;;;3.98;100.00
52975;BME280;38839;45.186;5.720;2024-01-15T10:58:46;98441.88;;;4.03;100.00
52975;BME280;38839;45.186;5.720;2024-01-15T11:01:12;98443.63;;;4.08;100.00
52975;BME280;38839;45.186;5.720;2024-01-15T11:03:37;98446.19;;;4.05;100.00
52975;BME280;38839;45.186;5.720;2024-01-15T11:06:03;98433.34;;;4.11;100.00
52975;BME280;38839;45.186;5.720;2024-01-15T11:08:40;98423.81;;;4.03;100.00
52975;BME280;38839;45.186;5.720;2024-01-15T11:11:07;98418.88;;;4.25;100.00
52975;BME280;38839;45.186;5.720;2024-01-15T11:18:26;98423.13;;;4.20;100.00
52975;BME280;38839;45.186;5.720;2024-01-15T11:29:00;98401.44;;;4.06;100.00
52975;BME280;38839;45.186;5.720;2024-01-15T11:34:04;98404.16;;;4.18;100.00
52975;BME280;38839;45.186;5.720;2024-01-15T11:39:39;98383.63;;;4.30;100.00
52975;BME280;38839;45.186;5.720;2024-01-15T11:42:04;98386.97;;;4.17;100.00
52975;BME280;38839;45.186;5.720;2024-01-15T11:44:30;98392.13;;;4.17;100.00
52975;BME280;38839;45.186;5.720;2024-01-15T11:47:05;98380.03;;;4.13;100.00
52975;BME280;38839;45.186;5.720;2024-01-15T11:52:18;98378.50;;;4.32;100.00
52975;BME280;38839;45.186;5.720;2024-01-15T11:55:06;98378.53;;;4.38;100.00
52975;BME280;38839;45.186;5.720;2024-01-15T11:59:58;98387.13;;;4.35;100.00
52975;BME280;38839;45.186;5.720;2024-01-15T12:02:23;98385.47;;;4.42;100.00
52975;BME280;38839;45.186;5.720;2024-01-15T12:04:49;98389.00;;;4.52;100.00
52975;BME280;38839;45.186;5.720;2024-01-15T12:07:14;98383.94;;;4.62;100.00
52975;BME280;38839;45.186;5.720;2024-01-15T12:09:43;98387.38;;;4.63;100.00
52975;BME280;38839;45.186;5.720;2024-01-15T12:12:09;98380.53;;;4.68;100.00
52975;BME280;38839;45.186;5.720;2024-01-15T12:14:38;98374.44;;;4.63;100.00
52975;BME280;38839;45.186;5.720;2024-01-15T12:17:04;98375.28;;;4.57;100.00
52975;BME280;38839;45.186;5.720;2024-01-15T12:19:29;98368.28;;;4.46;100.00
52975;BME280;38839;45.186;5.720;2024-01-15T12:21:55;98371.78;;;4.52;100.00
52975;BME280;38839;45.186;5.720;2024-01-15T12:24:20;98368.50;;;4.70;100.00
52975;BME280;38839;45.186;5.720;2024-01-15T12:26:45;98373.53;;;4.55;100.00
52975;BME280;38839;45.186;5.720;2024-01-15T12:29:11;98375.38;;;4.68;100.00
52975;BME280;38839;45.186;5.720;2024-01-15T12:31:36;98384.69;;;4.49;100.00
52975;BME280;38839;45.186;5.720;2024-01-15T12:34:01;98386.41;;;4.50;100.00
52975;BME280;38839;45.186;5.720;2024-01-15T12:36:27;98382.78;;;4.31;100.00
52975;BME280;38839;45.186;5.720;2024-01-15T12:38:52;98382.56;;;4.07;100.00
52975;BME280;38839;45.186;5.720;2024-01-15T12:41:17;98378.34;;;4.16;100.00
52975;BME280;38839;45.186;5.720;2024-01-15T12:43:42;98380.84;;;4.07;100.00
52975;BME280;38839;45.186;5.720;2024-01-15T12:46:08;98378.22;;;4.06;100.00
52975;BME280;38839;45.186;5.720;2024-01-15T12:48:34;98378.22;;;4.06;100.00
52975;BME280;38839;45.186;5.720;2024-01-15T12:50:59;98372.25;;;4.08;100.00
52975;BME280;38839;45.186;5.720;2024-01-15T12:53:24;98379.25;;;4.18;100.00
52975;BME280;38839;45.186;5.720;2024-01-15T12:55:49;98376.69;;;4.23;100.00
52975;BME280;38839;45.186;5.720;2024-01-15T12:58:15;98381.94;;;4.32;100.00
52975;BME280;38839;45.186;5.720;2024-01-15T13:00:40;98376.78;;;4.31;100.00
52975;BME280;38839;45.186;5.720;2024-01-15T13:03:06;98380.28;;;4.40;100.00
52975;BME280;38839;45.186;5.720;2024-01-15T13:05:32;98367.47;;;4.50;100.00
52975;BME280;38839;45.186;5.720;2024-01-15T13:07:58;98363.22;;;4.58;100.00
52975;BME280;38839;45.186;5.720;2024-01-15T13:10:24;98373.59;;;4.59;100.00
52975;BME280;38839;45.186;5.720;2024-01-15T13:12:50;98366.75;;;4.69;100.00
52975;BME280;38839;45.186;5.720;2024-01-15T13:15:16;98365.03;;;4.71;100.00